Time;durP1;ratioP1;P1;durP2;ratioP2;P2;SDS_P1;SDS_P2;PMS_P1;PMS_P2;Temp;Humidity;BMP_temperature;BMP_pressure;BME280_temperature;BME280_humidity;BME280_pressure;Samples;Min_cycle;Max_cycle;Signal;HPM_P1;HPM_P2
2022/01/07 00:02:19;;;;;;;12.10;6.20;;;;;;;;;;5069574;28;20687;-82
2022/01/07 00:04:46;;;;;;;12.45;5.20;;;;;;;;;;5066702;28;20201;-81
2022/01/07 00:07:13;;;;;;;13.65;6.13;;;;;;;;;;5066602;28;20190;-82
2022/01/07 00:09:41;;;;;;;8.68;4.72;;;;;;;;;;5070974;28;20221;-81
2022/01/07 00:12:10;;;;;;;7.97;4.82;;;;;;;;;;5069611;28;20190;-81
2022/01/07 00:14:37;;;;;;;10.40;6.15;;;;;;;;;;5069486;28;20647;-82
2022/01/07 00:17:04;;;;;;;15.07;6.50;;;;;;;;;;5068444;28;20586;-82
2022/01/07 00:19:31;;;;;;;15.15;7.05;;;;;;;;;;5067043;28;20214;-83
2022/01/07 00:21:58;;;;;;;13.02;5.53;;;;;;;;;;5068553;28;20224;-80
2022/01/07 00:24:25;;;;;;;12.00;4.85;;;;;;;;;;5071034;28;20208;-83
2022/01/07 00:26:53;;;;;;;10.90;6.00;;;;;;;;;;5069474;28;20198;-80
2022/01/07 00:29:21;;;;;;;19.00;6.53;;;;;;;;;;5069506;28;20714;-81
2022/01/07 00:31:48;;;;;;;10.32;5.55;;;;;;;;;;5068661;28;20190;-82
2022/01/07 00:34:15;;;;;;;12.88;7.03;;;;;;;;;;5071417;28;20198;-80
2022/01/07 00:36:43;;;;;;;15.18;5.70;;;;;;;;;;5068263;28;20194;-83
2022/01/07 00:39:10;;;;;;;10.40;5.10;;;;;;;;;;5068674;28;20644;-83
2022/01/07 00:41:37;;;;;;;12.45;6.35;;;;;;;;;;5069407;28;20221;-83
2022/01/07 00:44:04;;;;;;;16.13;6.30;;;;;;;;;;5069885;28;20205;-82
2022/01/07 00:46:33;;;;;;;11.23;6.05;;;;;;;;;;5070936;28;20544;-82
2022/01/07 00:49:00;;;;;;;14.65;6.63;;;;;;;;;;5068713;28;20234;-80
2022/01/07 00:51:27;;;;;;;8.98;5.30;;;;;;;;;;5069004;28;20201;-79
2022/01/07 00:53:54;;;;;;;10.75;5.88;;;;;;;;;;5072551;28;20565;-80
2022/01/07 00:56:21;;;;;;;11.60;5.53;;;;;;;;;;5072237;28;20194;-81
2022/01/07 00:58:49;;;;;;;13.20;6.10;;;;;;;;;;5067010;28;20308;-80
2022/01/07 01:01:17;;;;;;;16.05;5.78;;;;;;;;;;5066529;28;20214;-82
2022/01/07 01:03:45;;;;;;;10.80;5.90;;;;;;;;;;5052724;28;20205;-82
2022/01/07 01:06:13;;;;;;;9.38;6.07;;;;;;;;;;5068880;28;20194;-80
2022/01/07 01:08:40;;;;;;;16.58;6.47;;;;;;;;;;5069938;28;20224;-82
2022/01/07 01:11:07;;;;;;;11.88;5.47;;;;;;;;;;5071221;28;20194;-81
2022/01/07 01:13:34;;;;;;;11.40;5.80;;;;;;;;;;5067818;28;20194;-82
2022/01/07 01:16:01;;;;;;;15.02;5.90;;;;;;;;;;5067997;28;20194;-80
2022/01/07 01:18:28;;;;;;;12.68;7.18;;;;;;;;;;5066328;28;20232;-82
2022/01/07 01:20:57;;;;;;;13.52;6.00;;;;;;;;;;5070537;28;20600;-81
2022/01/07 01:23:24;;;;;;;11.27;6.15;;;;;;;;;;5070301;28;20218;-80
2022/01/07 01:25:52;;;;;;;11.73;5.80;;;;;;;;;;5070309;28;20209;-82
2022/01/07 01:28:19;;;;;;;16.65;6.00;;;;;;;;;;5051814;28;20714;-82
2022/01/07 01:30:46;;;;;;;7.60;4.90;;;;;;;;;;5072201;28;20216;-80
2022/01/07 01:33:14;;;;;;;8.05;4.80;;;;;;;;;;5074750;28;20201;-82
2022/01/07 01:35:41;;;;;;;10.05;5.38;;;;;;;;;;5075628;28;20194;-82
2022/01/07 01:38:09;;;;;;;11.65;6.05;;;;;;;;;;5072648;28;20222;-80
2022/01/07 01:40:37;;;;;;;8.80;5.20;;;;;;;;;;5054641;28;20193;-81
2022/01/07 01:43:04;;;;;;;13.23;5.72;;;;;;;;;;5072349;28;20220;-80
2022/01/07 01:45:32;;;;;;;14.80;5.63;;;;;;;;;;5056098;28;20570;-82
2022/01/07 01:47:59;;;;;;;8.57;5.70;;;;;;;;;;5074016;28;20214;-83
2022/01/07 01:50:29;;;;;;;7.88;5.13;;;;;;;;;;5071921;28;20651;-82
2022/01/07 01:52:57;;;;;;;12.18;5.50;;;;;;;;;;5074985;28;20235;-79
2022/01/07 01:55:27;;;;;;;11.20;5.40;;;;;;;;;;5055961;28;20209;-81
2022/01/07 01:57:54;;;;;;;10.98;5.90;;;;;;;;;;5072145;28;20229;-81
2022/01/07 02:00:22;;;;;;;11.93;5.70;;;;;;;;;;5068836;28;20202;-80
2022/01/07 02:02:49;;;;;;;10.82;6.30;;;;;;;;;;5071245;28;20225;-82
2022/01/07 02:05:17;;;;;;;9.82;5.40;;;;;;;;;;5069619;28;20202;-80
2022/01/07 02:07:44;;;;;;;11.18;6.80;;;;;;;;;;5073539;28;20229;-82
2022/01/07 02:10:13;;;;;;;9.77;5.20;;;;;;;;;;5053708;28;20198;-81
2022/01/07 02:12:42;;;;;;;11.77;6.03;;;;;;;;;;5073236;28;20198;-82
2022/01/07 02:15:10;;;;;;;6.07;4.55;;;;;;;;;;5073180;28;20556;-84
2022/01/07 02:17:41;;;;;;;11.40;4.90;;;;;;;;;;5075099;28;20712;-83
2022/01/07 02:20:10;;;;;;;7.38;4.45;;;;;;;;;;5074398;28;20198;-83
2022/01/07 02:22:37;;;;;;;7.07;5.30;;;;;;;;;;5070941;28;20222;-78
2022/01/07 02:25:05;;;;;;;8.38;4.45;;;;;;;;;;5070596;28;20187;-80
2022/01/07 02:27:32;;;;;;;9.38;5.30;;;;;;;;;;5070739;28;20209;-81
2022/01/07 02:30:00;;;;;;;8.73;4.95;;;;;;;;;;5072759;28;20284;-81
2022/01/07 02:32:27;;;;;;;9.80;6.10;;;;;;;;;;5072928;28;20194;-80
2022/01/07 02:34:54;;;;;;;7.35;3.95;;;;;;;;;;5073132;28;20209;-80
2022/01/07 02:37:22;;;;;;;7.75;5.43;;;;;;;;;;5069059;28;20202;-80
2022/01/07 02:39:51;;;;;;;9.95;4.90;;;;;;;;;;5069709;28;20194;-80
2022/01/07 02:42:18;;;;;;;13.50;5.20;;;;;;;;;;5069627;28;20222;-82
2022/01/07 02:44:45;;;;;;;6.63;4.75;;;;;;;;;;5072384;28;20237;-81
2022/01/07 02:47:13;;;;;;;5.43;3.60;;;;;;;;;;5073061;28;20198;-83
2022/01/07 02:49:40;;;;;;;7.72;4.18;;;;;;;;;;5071214;28;20283;-82
2022/01/07 02:52:07;;;;;;;9.55;4.93;;;;;;;;;;5072004;28;20209;-79
2022/01/07 02:54:35;;;;;;;9.73;4.30;;;;;;;;;;5061322;28;20209;-83
2022/01/07 02:57:03;;;;;;;8.27;5.07;;;;;;;;;;5065032;28;20756;-82
2022/01/07 02:59:30;;;;;;;5.75;4.03;;;;;;;;;;5069828;28;20226;-82
2022/01/07 03:01:57;;;;;;;7.35;4.55;;;;;;;;;;5070086;28;20229;-81
2022/01/07 03:04:26;;;;;;;6.93;4.07;;;;;;;;;;5070005;28;20198;-81
2022/01/07 03:06:53;;;;;;;7.53;5.30;;;;;;;;;;5070918;28;20543;-82
2022/01/07 03:09:21;;;;;;;8.23;4.90;;;;;;;;;;5053362;28;20476;-81
2022/01/07 03:11:49;;;;;;;6.78;4.32;;;;;;;;;;5068616;28;20209;-82
2022/01/07 03:14:17;;;;;;;9.95;4.40;;;;;;;;;;5066487;28;20659;-82
2022/01/07 03:16:44;;;;;;;10.65;5.57;;;;;;;;;;5070160;28;20193;-81
2022/01/07 03:19:11;;;;;;;10.55;4.70;;;;;;;;;;5071875;28;20222;-80
2022/01/07 03:21:38;;;;;;;8.13;4.90;;;;;;;;;;5070110;28;20190;-82
2022/01/07 03:24:05;;;;;;;8.10;5.03;;;;;;;;;;5071822;28;20197;-83
2022/01/07 03:26:32;;;;;;;12.07;5.03;;;;;;;;;;5072178;28;20205;-82
2022/01/07 03:29:01;;;;;;;7.88;4.63;;;;;;;;;;5068998;28;20226;-81
2022/01/07 03:31:28;;;;;;;9.05;4.47;;;;;;;;;;5068492;28;20194;-81
2022/01/07 03:33:55;;;;;;;7.45;4.38;;;;;;;;;;5070915;28;20205;-80
2022/01/07 03:36:22;;;;;;;8.23;4.85;;;;;;;;;;5068656;28;20201;-81
2022/01/07 03:38:50;;;;;;;6.28;3.88;;;;;;;;;;5071550;28;20218;-80
2022/01/07 03:41:17;;;;;;;12.48;4.43;;;;;;;;;;5071722;28;20202;-83
2022/01/07 03:43:44;;;;;;;6.18;4.88;;;;;;;;;;5070979;28;20695;-82
2022/01/07 03:46:13;;;;;;;5.95;4.30;;;;;;;;;;5069505;28;20201;-79
2022/01/07 03:48:40;;;;;;;9.13;4.53;;;;;;;;;;5069013;28;20238;-81
2022/01/07 03:51:07;;;;;;;8.48;4.65;;;;;;;;;;5068876;28;20198;-81
2022/01/07 03:53:34;;;;;;;6.10;3.85;;;;;;;;;;5068502;28;20706;-82
2022/01/07 03:56:01;;;;;;;13.45;5.25;;;;;;;;;;5064789;28;20208;-82
2022/01/07 03:58:29;;;;;;;10.70;4.40;;;;;;;;;;5070646;28;20630;-81
2022/01/07 04:00:56;;;;;;;11.38;4.90;;;;;;;;;;5070755;28;20202;-80
2022/01/07 04:03:24;;;;;;;8.45;4.88;;;;;;;;;;5068582;28;20218;-82
2022/01/07 04:05:51;;;;;;;13.90;5.47;;;;;;;;;;5067031;28;20201;-81
2022/01/07 04:08:19;;;;;;;7.05;5.05;;;;;;;;;;5070355;28;20222;-81
2022/01/07 04:10:46;;;;;;;8.43;5.03;;;;;;;;;;5071016;28;20201;-81
2022/01/07 04:13:13;;;;;;;7.28;4.22;;;;;;;;;;5069560;28;20201;-82
2022/01/07 04:15:40;;;;;;;10.40;5.05;;;;;;;;;;5070204;28;20230;-80
2022/01/07 04:18:07;;;;;;;11.23;5.05;;;;;;;;;;5071136;28;20214;-81
2022/01/07 04:20:36;;;;;;;9.18;4.72;;;;;;;;;;5067344;28;21003;-83
2022/01/07 04:23:04;;;;;;;8.85;4.45;;;;;;;;;;5068367;28;20221;-80
2022/01/07 04:25:31;;;;;;;11.15;5.63;;;;;;;;;;5050289;28;20198;-81
2022/01/07 04:28:00;;;;;;;10.68;5.50;;;;;;;;;;5070385;28;20222;-80
2022/01/07 04:30:29;;;;;;;10.38;5.38;;;;;;;;;;5068817;28;20204;-80
2022/01/07 04:32:56;;;;;;;12.70;5.75;;;;;;;;;;5052909;28;20197;-80
2022/01/07 04:35:23;;;;;;;9.00;3.90;;;;;;;;;;5069669;28;20202;-80
2022/01/07 04:37:52;;;;;;;7.07;4.35;;;;;;;;;;5067220;28;20222;-82
2022/01/07 04:40:20;;;;;;;9.82;4.50;;;;;;;;;;5049494;28;20651;-81
2022/01/07 04:42:47;;;;;;;9.82;4.65;;;;;;;;;;5070065;28;20225;-81
2022/01/07 04:45:15;;;;;;;10.18;4.38;;;;;;;;;;5068809;28;20198;-81
2022/01/07 04:47:42;;;;;;;10.00;5.10;;;;;;;;;;5049580;28;20430;-81
2022/01/07 04:50:11;;;;;;;12.43;4.65;;;;;;;;;;5069318;28;20245;-81
2022/01/07 04:52:40;;;;;;;9.35;4.88;;;;;;;;;;5049957;28;20732;-79
2022/01/07 04:55:10;;;;;;;9.32;5.13;;;;;;;;;;5052388;28;20578;-82
2022/01/07 04:57:37;;;;;;;7.22;4.22;;;;;;;;;;5071133;28;20205;-80
2022/01/07 05:00:04;;;;;;;9.38;4.57;;;;;;;;;;5067143;28;20557;-82
2022/01/07 05:02:42;;;;;;;6.93;4.70;;;;;;;;;;5067541;28;20241;-81
2022/01/07 05:05:09;;;;;;;9.38;4.85;;;;;;;;;;5048947;28;20240;-81
2022/01/07 05:07:37;;;;;;;7.40;4.38;;;;;;;;;;5048715;28;20205;-79
2022/01/07 05:10:05;;;;;;;9.60;4.85;;;;;;;;;;5031735;28;20234;-81
2022/01/07 05:12:33;;;;;;;7.93;4.47;;;;;;;;;;5051438;28;20207;-78
2022/01/07 05:15:00;;;;;;;5.45;3.80;;;;;;;;;;5061534;28;20206;-79
2022/01/07 05:17:27;;;;;;;7.15;3.65;;;;;;;;;;5072316;28;20194;-81
2022/01/07 05:19:54;;;;;;;9.25;3.95;;;;;;;;;;5072502;28;20202;-79
2022/01/07 05:22:22;;;;;;;8.32;4.28;;;;;;;;;;5067980;28;20576;-81
2022/01/07 05:24:49;;;;;;;13.27;4.15;;;;;;;;;;5066170;28;20876;-81
2022/01/07 05:27:16;;;;;;;6.20;3.33;;;;;;;;;;5067691;28;20197;-82
2022/01/07 05:29:44;;;;;;;5.05;3.03;;;;;;;;;;5052197;28;20214;-82
2022/01/07 05:32:11;;;;;;;8.07;4.60;;;;;;;;;;5070055;28;20601;-80
2022/01/07 05:34:39;;;;;;;7.45;3.85;;;;;;;;;;5070335;28;20201;-83
2022/01/07 05:37:09;;;;;;;4.88;3.33;;;;;;;;;;5067635;28;20196;-83
2022/01/07 05:39:37;;;;;;;7.10;4.38;;;;;;;;;;5065980;28;20229;-81
2022/01/07 05:42:04;;;;;;;4.20;2.83;;;;;;;;;;5067736;28;20213;-83
2022/01/07 05:44:31;;;;;;;6.18;4.10;;;;;;;;;;5048714;28;20221;-80
2022/01/07 05:47:00;;;;;;;9.18;3.75;;;;;;;;;;5067149;28;21153;-82
2022/01/07 05:49:27;;;;;;;5.65;3.60;;;;;;;;;;5069465;28;20544;-80
2022/01/07 05:51:54;;;;;;;5.50;3.42;;;;;;;;;;5069576;28;20198;-83
2022/01/07 05:54:21;;;;;;;5.47;3.22;;;;;;;;;;5066923;28;20497;-82
2022/01/07 05:56:49;;;;;;;5.90;2.95;;;;;;;;;;5066202;28;20283;-82
2022/01/07 05:59:16;;;;;;;4.47;2.90;;;;;;;;;;5067850;28;20691;-81
2022/01/07 06:01:43;;;;;;;6.63;3.10;;;;;;;;;;5068713;28;20198;-80
2022/01/07 06:04:11;;;;;;;8.90;3.67;;;;;;;;;;5069521;28;20304;-80
2022/01/07 06:06:39;;;;;;;8.15;4.18;;;;;;;;;;5069207;28;20194;-80
2022/01/07 06:09:06;;;;;;;4.47;3.00;;;;;;;;;;5069685;28;20229;-82
2022/01/07 06:11:33;;;;;;;5.07;3.35;;;;;;;;;;5068994;28;20560;-79
2022/01/07 06:14:00;;;;;;;8.20;2.70;;;;;;;;;;5067196;28;20679;-82
2022/01/07 06:16:28;;;;;;;8.85;2.90;;;;;;;;;;5066728;28;20671;-80
2022/01/07 06:18:56;;;;;;;4.25;2.28;;;;;;;;;;5071371;28;20222;-81
2022/01/07 06:21:25;;;;;;;4.47;2.70;;;;;;;;;;5071609;28;20849;-79
2022/01/07 06:23:53;;;;;;;8.02;2.92;;;;;;;;;;5073237;28;20582;-80
2022/01/07 06:26:20;;;;;;;5.57;2.40;;;;;;;;;;5071777;28;20201;-79
2022/01/07 06:28:47;;;;;;;3.67;2.33;;;;;;;;;;5072126;28;21018;-81
2022/01/07 06:31:14;;;;;;;4.80;3.30;;;;;;;;;;5070763;28;20198;-82
2022/01/07 06:33:42;;;;;;;5.10;2.70;;;;;;;;;;5070547;28;20209;-80
2022/01/07 06:36:09;;;;;;;6.20;3.22;;;;;;;;;;5072206;28;20216;-82
2022/01/07 06:38:37;;;;;;;4.30;2.53;;;;;;;;;;5072691;28;20551;-80
2022/01/07 06:41:05;;;;;;;4.10;2.63;;;;;;;;;;5070677;28;20202;-81
2022/01/07 06:43:32;;;;;;;4.47;3.10;;;;;;;;;;5051319;28;20599;-79
2022/01/07 06:45:59;;;;;;;5.00;3.10;;;;;;;;;;5066855;28;20832;-81
2022/01/07 06:48:27;;;;;;;3.30;2.53;;;;;;;;;;5068529;28;20706;-83
2022/01/07 06:50:54;;;;;;;6.60;2.90;;;;;;;;;;5070746;28;20228;-83
2022/01/07 06:53:21;;;;;;;5.25;2.65;;;;;;;;;;5071318;28;20639;-82
2022/01/07 06:55:49;;;;;;;3.95;2.90;;;;;;;;;;5071853;28;20202;-81
2022/01/07 06:58:16;;;;;;;5.22;2.55;;;;;;;;;;5071963;28;20213;-84
2022/01/07 07:00:43;;;;;;;3.40;2.50;;;;;;;;;;5071799;28;20194;-80
2022/01/07 07:03:11;;;;;;;2.92;2.55;;;;;;;;;;5073180;28;20598;-82
2022/01/07 07:05:38;;;;;;;3.55;2.50;;;;;;;;;;5074203;28;20564;-80
2022/01/07 07:08:05;;;;;;;4.28;3.03;;;;;;;;;;5070168;28;20225;-83
2022/01/07 07:10:32;;;;;;;3.83;3.05;;;;;;;;;;5068603;28;20190;-80
2022/01/07 07:13:01;;;;;;;3.72;2.33;;;;;;;;;;5071385;28;20222;-80
2022/01/07 07:15:28;;;;;;;3.45;2.22;;;;;;;;;;5071536;28;20221;-84
2022/01/07 07:17:55;;;;;;;3.58;2.33;;;;;;;;;;5059347;28;20252;-83
2022/01/07 07:20:22;;;;;;;4.90;2.35;;;;;;;;;;5072136;28;20194;-82
2022/01/07 07:22:49;;;;;;;2.90;2.30;;;;;;;;;;5072106;28;20209;-80
2022/01/07 07:25:17;;;;;;;4.05;2.60;;;;;;;;;;5073085;28;20218;-83
2022/01/07 07:27:44;;;;;;;4.40;2.25;;;;;;;;;;5069282;28;20224;-84
2022/01/07 07:30:13;;;;;;;3.63;2.25;;;;;;;;;;5071706;28;20567;-81
2022/01/07 07:32:40;;;;;;;4.20;2.15;;;;;;;;;;5068657;28;20198;-80
2022/01/07 07:37:49;;;;;;;2.88;2.15;;;;;;;;;;5070011;28;20217;-86
2022/01/07 07:40:18;;;;;;;4.15;2.58;;;;;;;;;;5070027;28;20202;-82
2022/01/07 07:42:45;;;;;;;5.45;2.35;;;;;;;;;;5069261;28;20202;-85
2022/01/07 07:45:14;;;;;;;3.78;2.30;;;;;;;;;;5069507;28;20222;-81
2022/01/07 07:47:41;;;;;;;2.80;1.90;;;;;;;;;;5050483;28;20194;-81
2022/01/07 07:50:09;;;;;;;2.95;1.98;;;;;;;;;;5050427;28;20816;-82
2022/01/07 07:52:36;;;;;;;2.65;1.92;;;;;;;;;;5069876;28;20201;-82
2022/01/07 07:55:04;;;;;;;2.38;2.17;;;;;;;;;;5066428;28;20196;-80
2022/01/07 07:57:31;;;;;;;3.33;1.80;;;;;;;;;;5070253;28;20290;-82
2022/01/07 07:59:58;;;;;;;4.05;1.77;;;;;;;;;;5069918;28;20225;-80
2022/01/07 08:02:30;;;;;;;3.10;2.10;;;;;;;;;;5070192;28;20646;-81
2022/01/07 08:04:57;;;;;;;3.80;2.30;;;;;;;;;;5069321;28;20221;-82
2022/01/07 08:07:24;;;;;;;3.35;1.85;;;;;;;;;;5068047;28;20201;-79
2022/01/07 08:09:53;;;;;;;5.00;1.90;;;;;;;;;;5067827;28;20197;-81
2022/01/07 08:12:25;;;;;;;2.90;2.08;;;;;;;;;;5070785;28;20618;-82
2022/01/07 08:17:34;;;;;;;2.08;1.70;;;;;;;;;;5069953;28;20186;-83
2022/01/07 08:20:02;;;;;;;4.32;1.85;;;;;;;;;;5070944;28;20208;-80
2022/01/07 08:22:29;;;;;;;2.00;1.52;;;;;;;;;;5069749;28;20536;-83
2022/01/07 08:24:56;;;;;;;2.72;1.60;;;;;;;;;;5067228;28;20210;-84
2022/01/07 08:27:23;;;;;;;4.45;1.90;;;;;;;;;;5067986;28;20206;-82
2022/01/07 08:29:51;;;;;;;1.63;1.52;;;;;;;;;;5070629;28;20281;-79
2022/01/07 08:35:03;;;;;;;4.70;2.03;;;;;;;;;;5070690;28;20764;-79
2022/01/07 08:37:30;;;;;;;3.15;1.83;;;;;;;;;;5068949;28;20297;-79
2022/01/07 08:39:58;;;;;;;4.32;2.53;;;;;;;;;;5069756;28;20227;-84
2022/01/07 08:42:26;;;;;;;3.00;2.30;;;;;;;;;;5067906;28;20194;-80
2022/01/07 08:44:54;;;;;;;4.05;2.00;;;;;;;;;;5066774;28;20213;-82
2022/01/07 11:28:19;;;;;;;1.70;1.60;;;;;;;;;;5064650;23;20227;-77
2022/01/07 11:30:48;;;;;;;4.70;2.05;;;;;;;;;;5010189;28;20199;-77
2022/01/07 11:33:17;;;;;;;4.25;1.88;;;;;;;;;;4994954;28;20192;-78
2022/01/07 11:35:47;;;;;;;2.22;1.60;;;;;;;;;;5004602;28;20211;-77
2022/01/07 11:38:16;;;;;;;2.70;1.50;;;;;;;;;;5005161;28;20243;-77
2022/01/07 11:40:46;;;;;;;2.85;1.63;;;;;;;;;;5006235;28;20207;-78
2022/01/07 11:43:31;;;;;;;2.92;1.70;;;;;;;;;;4992803;28;20194;-78
2022/01/07 11:46:00;;;;;;;3.75;2.30;;;;;;;;;;4995250;28;20196;-76
2022/01/07 11:48:30;;;;;;;4.20;2.67;;;;;;;;;;4990818;28;20199;-79
2022/01/07 11:51:13;;;;;;;3.30;2.10;;;;;;;;;;5006684;28;20203;-77
2022/01/07 11:53:55;;;;;;;3.20;2.08;;;;;;;;;;4989780;28;20212;-77
2022/01/07 11:56:25;;;;;;;1.92;1.45;;;;;;;;;;4993249;28;20910;-78
2022/01/07 11:58:55;;;;;;;5.75;2.38;;;;;;;;;;5009729;28;20200;-78
2022/01/07 12:01:25;;;;;;;2.90;2.00;;;;;;;;;;4991537;28;20233;-76
2022/01/07 12:03:53;;;;;;;2.88;1.80;;;;;;;;;;5009322;28;20604;-77
2022/01/07 12:06:35;;;;;;;5.60;2.40;;;;;;;;;;5006180;28;20224;-77
2022/01/07 12:09:11;;;;;;;4.43;2.20;;;;;;;;;;5005912;28;20200;-77
2022/01/07 12:11:40;;;;;;;5.25;2.40;;;;;;;;;;5004172;28;20230;-77
2022/01/07 12:14:12;;;;;;;5.07;2.42;;;;;;;;;;4978364;28;20846;-79
2022/01/07 12:16:41;;;;;;;5.70;2.15;;;;;;;;;;4981923;28;20620;-77
2022/01/07 12:19:26;;;;;;;4.50;2.10;;;;;;;;;;5005241;28;20246;-77
2022/01/07 12:21:53;;;;;;;5.43;2.50;;;;;;;;;;4998726;28;20185;-81
2022/01/07 12:27:28;;;;;;;6.50;2.15;;;;;;;;;;4953141;28;20283;-77
2022/01/07 12:29:59;;;;;;;5.05;2.33;;;;;;;;;;5007355;28;20212;-76
2022/01/07 12:32:32;;;;;;;5.88;2.65;;;;;;;;;;5007639;28;20228;-77
2022/01/07 12:34:59;;;;;;;9.38;3.13;;;;;;;;;;4990837;28;20204;-79
2022/01/07 12:37:26;;;;;;;9.10;4.30;;;;;;;;;;5008176;28;20590;-80
2022/01/07 12:39:54;;;;;;;5.78;3.28;;;;;;;;;;5008405;28;20200;-76
2022/01/07 12:42:21;;;;;;;7.88;3.10;;;;;;;;;;5009458;28;20199;-78
2022/01/07 12:44:52;;;;;;;8.80;3.65;;;;;;;;;;5009526;28;20227;-76
2022/01/07 12:47:19;;;;;;;6.05;3.03;;;;;;;;;;4989954;28;20219;-78
2022/01/07 12:49:49;;;;;;;12.48;3.58;;;;;;;;;;4988321;28;20192;-78
2022/01/07 12:52:18;;;;;;;8.13;3.03;;;;;;;;;;5005746;28;20196;-78
2022/01/07 12:54:51;;;;;;;9.35;2.63;;;;;;;;;;5007541;28;20580;-79
2022/01/07 12:57:24;;;;;;;14.32;2.83;;;;;;;;;;4990481;28;20220;-78
2022/01/07 13:00:02;;;;;;;4.60;1.92;;;;;;;;;;5008252;28;20703;-78
2022/01/07 13:02:29;;;;;;;10.13;2.75;;;;;;;;;;5008717;28;20649;-79
2022/01/07 13:05:10;;;;;;;17.40;5.00;;;;;;;;;;4991645;28;20231;-77
2022/01/07 13:07:40;;;;;;;13.35;3.88;;;;;;;;;;5009094;28;20219;-76
2022/01/07 13:10:07;;;;;;;14.82;4.20;;;;;;;;;;4991064;28;20210;-78
2022/01/07 13:12:35;;;;;;;7.57;3.42;;;;;;;;;;5008432;28;20208;-77
2022/01/07 13:15:02;;;;;;;13.63;4.20;;;;;;;;;;4992758;28;20200;-76
2022/01/07 13:17:29;;;;;;;26.67;4.50;;;;;;;;;;5010394;28;20220;-80
2022/01/07 13:19:57;;;;;;;19.95;3.17;;;;;;;;;;5010623;28;20203;-79
2022/01/07 13:22:26;;;;;;;9.68;3.25;;;;;;;;;;4993801;28;20207;-80
2022/01/07 13:24:54;;;;;;;10.77;2.90;;;;;;;;;;4990598;28;20231;-79
2022/01/07 13:27:21;;;;;;;6.82;2.88;;;;;;;;;;4995632;28;20267;-83
2022/01/07 13:29:49;;;;;;;3.97;2.72;;;;;;;;;;5012355;28;20206;-76
2022/01/07 13:32:21;;;;;;;8.82;4.00;;;;;;;;;;5012798;28;20294;-76
2022/01/07 13:34:49;;;;;;;13.13;4.32;;;;;;;;;;5014741;28;20266;-76
2022/01/07 13:37:19;;;;;;;15.77;3.90;;;;;;;;;;4997273;28;20230;-77
2022/01/07 13:39:49;;;;;;;9.07;3.28;;;;;;;;;;4997525;28;20204;-78
2022/01/07 13:42:22;;;;;;;5.72;2.95;;;;;;;;;;4997731;28;20246;-77
2022/01/07 13:44:52;;;;;;;7.78;2.92;;;;;;;;;;4998798;28;20231;-78
2022/01/07 13:47:20;;;;;;;6.18;2.50;;;;;;;;;;5015818;28;20223;-78
2022/01/07 13:49:47;;;;;;;6.63;2.55;;;;;;;;;;5015903;28;20723;-77
2022/01/07 13:52:15;;;;;;;5.25;3.35;;;;;;;;;;5011187;28;20699;-78
2022/01/07 13:54:42;;;;;;;5.38;2.40;;;;;;;;;;5012098;28;20192;-77
2022/01/07 13:57:12;;;;;;;8.55;2.67;;;;;;;;;;5013505;28;20227;-78
2022/01/07 13:59:43;;;;;;;7.57;3.10;;;;;;;;;;5013324;28;20262;-77
2022/01/07 14:02:15;;;;;;;3.70;2.85;;;;;;;;;;5014375;28;20246;-78
2022/01/07 14:04:43;;;;;;;4.40;2.60;;;;;;;;;;5014084;28;20251;-79
2022/01/07 14:07:25;;;;;;;6.38;2.60;;;;;;;;;;4994669;28;20598;-77
2022/01/07 14:10:01;;;;;;;6.88;3.10;;;;;;;;;;5010652;28;20196;-78
2022/01/07 14:12:30;;;;;;;5.60;2.80;;;;;;;;;;4993380;28;20208;-78
2022/01/07 14:15:04;;;;;;;4.78;2.83;;;;;;;;;;4994528;28;20196;-78
2022/01/07 14:17:31;;;;;;;5.10;2.35;;;;;;;;;;4994568;28;20312;-79
2022/01/07 14:19:59;;;;;;;2.60;2.30;;;;;;;;;;4994157;28;20673;-77
2022/01/07 14:22:26;;;;;;;5.60;2.70;;;;;;;;;;5009026;28;20196;-78
2022/01/07 14:24:54;;;;;;;4.38;2.55;;;;;;;;;;5015726;28;20219;-77
2022/01/07 14:27:31;;;;;;;4.47;2.95;;;;;;;;;;5015489;28;20228;-77
2022/01/07 14:29:59;;;;;;;5.57;2.65;;;;;;;;;;4994924;28;20200;-78
2022/01/07 14:32:26;;;;;;;11.48;2.88;;;;;;;;;;4994203;28;20751;-78
2022/01/07 14:34:57;;;;;;;4.15;2.75;;;;;;;;;;4995908;28;20199;-77
2022/01/07 14:37:24;;;;;;;5.45;2.95;;;;;;;;;;5013394;28;20239;-78
2022/01/07 14:39:52;;;;;;;3.30;2.08;;;;;;;;;;5012622;28;20203;-78
2022/01/07 14:42:20;;;;;;;3.22;2.40;;;;;;;;;;5013320;28;20203;-79
2022/01/07 14:44:48;;;;;;;7.03;2.40;;;;;;;;;;5014172;28;20692;-79
2022/01/07 14:47:16;;;;;;;4.90;2.30;;;;;;;;;;5015017;28;20223;-78
2022/01/07 14:49:48;;;;;;;4.38;2.25;;;;;;;;;;5015312;28;20623;-78
2022/01/07 14:52:15;;;;;;;5.43;2.50;;;;;;;;;;5012353;28;20200;-79
2022/01/07 14:54:42;;;;;;;3.95;2.15;;;;;;;;;;5011290;28;20211;-78
2022/01/07 14:57:10;;;;;;;5.15;2.40;;;;;;;;;;5012535;28;20222;-77
2022/01/07 14:59:37;;;;;;;6.70;2.60;;;;;;;;;;5013026;28;20199;-78
2022/01/07 15:02:06;;;;;;;8.98;2.65;;;;;;;;;;5013114;28;20580;-79
2022/01/07 15:04:33;;;;;;;5.55;2.80;;;;;;;;;;5013269;28;20617;-79
2022/01/07 15:07:01;;;;;;;2.78;2.45;;;;;;;;;;5013563;28;20727;-78
2022/01/07 15:09:28;;;;;;;6.22;2.17;;;;;;;;;;5011222;28;20204;-79
2022/01/07 15:11:55;;;;;;;3.72;2.40;;;;;;;;;;5010647;28;20196;-80
2022/01/07 15:14:22;;;;;;;2.95;1.90;;;;;;;;;;5012235;28;20246;-79
2022/01/07 15:16:50;;;;;;;6.28;2.08;;;;;;;;;;5012614;28;20219;-78
2022/01/07 15:19:19;;;;;;;5.30;2.65;;;;;;;;;;5012639;28;20202;-79
2022/01/07 15:21:48;;;;;;;3.28;1.80;;;;;;;;;;5012780;28;20567;-79
2022/01/07 15:24:16;;;;;;;4.00;1.67;;;;;;;;;;5013609;28;20628;-79
2022/01/07 15:26:45;;;;;;;4.50;1.88;;;;;;;;;;4997414;28;20228;-78
2022/01/07 15:29:13;;;;;;;4.90;2.08;;;;;;;;;;5011405;28;20223;-79
2022/01/07 15:31:40;;;;;;;6.60;2.05;;;;;;;;;;4992920;28;20241;-78
2022/01/07 15:34:08;;;;;;;1.42;1.33;;;;;;;;;;5011537;28;20572;-80
2022/01/07 15:36:37;;;;;;;3.58;1.70;;;;;;;;;;5011984;28;20242;-79
2022/01/07 15:39:07;;;;;;;3.33;1.80;;;;;;;;;;4994790;28;20542;-78
2022/01/07 15:41:34;;;;;;;4.53;2.25;;;;;;;;;;5012625;28;20504;-78
2022/01/07 15:44:01;;;;;;;2.92;1.67;;;;;;;;;;4988944;28;20209;-79
2022/01/07 15:46:28;;;;;;;3.28;1.90;;;;;;;;;;4994878;28;20228;-76
2022/01/07 15:48:57;;;;;;;4.10;2.40;;;;;;;;;;4994553;28;20380;-80
2022/01/07 15:51:24;;;;;;;3.28;1.95;;;;;;;;;;5001463;28;20196;-79
2022/01/07 15:53:53;;;;;;;2.50;1.85;;;;;;;;;;5009794;28;20200;-78
2022/01/07 15:56:20;;;;;;;3.72;1.60;;;;;;;;;;5010655;28;20358;-79
2022/01/07 15:58:49;;;;;;;2.70;2.05;;;;;;;;;;5011916;28;20207;-79
2022/01/07 16:01:16;;;;;;;3.17;2.22;;;;;;;;;;5011835;28;20204;-78
2022/01/07 16:03:44;;;;;;;2.40;1.70;;;;;;;;;;5011960;28;20517;-78
2022/01/07 16:06:11;;;;;;;2.33;2.08;;;;;;;;;;5011931;28;20227;-78
2022/01/07 16:08:39;;;;;;;2.90;2.08;;;;;;;;;;5014052;28;20602;-78
2022/01/07 16:11:07;;;;;;;4.03;1.95;;;;;;;;;;4996566;28;20226;-80
2022/01/07 16:13:36;;;;;;;2.35;1.70;;;;;;;;;;5011963;28;20207;-81
2022/01/07 16:16:04;;;;;;;2.10;1.55;;;;;;;;;;5009114;28;20199;-79
2022/01/07 16:18:31;;;;;;;2.13;1.63;;;;;;;;;;5010392;28;20204;-77
2022/01/07 16:20:58;;;;;;;3.47;1.85;;;;;;;;;;5011719;28;20196;-78
2022/01/07 16:23:25;;;;;;;2.97;1.83;;;;;;;;;;5011504;28;20206;-78
2022/01/07 16:25:52;;;;;;;2.90;1.85;;;;;;;;;;5011790;28;20571;-78
2022/01/07 16:28:21;;;;;;;2.58;1.92;;;;;;;;;;5011438;28;20254;-80
2022/01/07 16:30:49;;;;;;;2.22;1.60;;;;;;;;;;5013513;28;20207;-84
2022/01/07 16:33:17;;;;;;;2.28;1.73;;;;;;;;;;5013559;28;20622;-78
2022/01/07 16:35:45;;;;;;;1.70;1.60;;;;;;;;;;5012216;28;20196;-77
2022/01/07 16:38:12;;;;;;;4.70;1.70;;;;;;;;;;5008927;28;20263;-77
2022/01/07 16:40:39;;;;;;;2.97;1.80;;;;;;;;;;5009370;28;20200;-77
2022/01/07 16:43:07;;;;;;;3.88;2.30;;;;;;;;;;5011009;28;20228;-77
2022/01/07 16:45:36;;;;;;;2.05;1.70;;;;;;;;;;4993814;28;20224;-76
2022/01/07 16:48:04;;;;;;;4.07;1.80;;;;;;;;;;5010941;28;20697;-79
2022/01/07 16:50:31;;;;;;;2.20;1.83;;;;;;;;;;4993851;28;20204;-78
2022/01/07 16:52:58;;;;;;;2.58;1.73;;;;;;;;;;5013191;28;20207;-80
2022/01/07 16:55:26;;;;;;;2.08;1.80;;;;;;;;;;5013100;28;20200;-78
2022/01/07 16:57:54;;;;;;;3.25;2.25;;;;;;;;;;5012290;28;20263;-78
2022/01/07 17:00:21;;;;;;;3.58;1.85;;;;;;;;;;5008719;28;20587;-79
2022/01/07 17:02:50;;;;;;;2.10;1.90;;;;;;;;;;4991374;28;20196;-78
2022/01/07 17:05:17;;;;;;;2.50;1.92;;;;;;;;;;5010991;28;20200;-78
2022/01/07 17:07:45;;;;;;;2.30;1.75;;;;;;;;;;5010413;28;20216;-78
2022/01/07 17:10:12;;;;;;;2.22;1.85;;;;;;;;;;5010892;28;20214;-78
2022/01/07 17:12:39;;;;;;;2.25;1.80;;;;;;;;;;4994073;28;20196;-78
2022/01/07 17:15:07;;;;;;;1.60;1.50;;;;;;;;;;5012182;28;20204;-78
2022/01/07 17:17:35;;;;;;;2.90;1.67;;;;;;;;;;5012748;28;20216;-77
2022/01/07 17:20:04;;;;;;;3.08;1.50;;;;;;;;;;4995405;28;20303;-79
2022/01/07 17:22:31;;;;;;;2.58;1.95;;;;;;;;;;5008409;28;20203;-78
2022/01/07 17:24:58;;;;;;;2.97;1.90;;;;;;;;;;5008616;28;20188;-78
2022/01/07 17:27:26;;;;;;;3.58;1.75;;;;;;;;;;5009756;28;20219;-77
2022/01/07 17:29:53;;;;;;;1.70;1.55;;;;;;;;;;5010675;28;20206;-76
2022/01/07 17:32:21;;;;;;;2.60;1.75;;;;;;;;;;5010678;28;20215;-79
2022/01/07 17:34:51;;;;;;;1.90;1.65;;;;;;;;;;5010729;28;20203;-78
2022/01/07 17:37:20;;;;;;;1.60;1.50;;;;;;;;;;5011977;28;20281;-78
2022/01/07 17:39:47;;;;;;;2.70;1.90;;;;;;;;;;5012760;28;20202;-79